Time,TemperatureF,DewpointF,PressureIn,WindDirection,WindDirectionDegrees,WindSpeedMPH,WindSpeedGustMPH,Humidity,HourlyPrecipIn,Conditions,Clouds,dailyrainin,SoftwareType,DateUTC
2013-01-04 00:00:00,15.3,11.9,30.12,South,175,15.0,15.0,86,0.00, +TSGR FG,SKC,-99.99,VWS V12.07,2013-01-04 06:00:00,
2013-01-04 00:05:00,15.2,11.8,30.12,WSW,238,1.0,6.0,86,0.00, +TSGR FG,SKC,-99.99,VWS V12.07,2013-01-04 06:05:00,
2013-01-04 00:10:00,15.1,11.7,30.12,SW,228,5.0,7.0,86,0.00, +TSGR FG,SKC,-99.99,VWS V12.07,2013-01-04 06:10:00,
2013-01-04 00:15:00,15.0,11.6,30.12,WSW,250,2.0,9.0,86,0.00, +TSGR FG,SKC,-99.99,VWS V12.07,2013-01-04 06:15:00,
2013-01-04 00:20:00,14.9,11.5,30.12,SSW,209,1.0,9.0,86,0.00, +TSGR FG,SKC,-99.99,VWS V12.07,2013-01-04 06:20:00,
2013-01-04 00:25:00,14.8,11.4,30.12,SW,221,0.0,8.0,86,0.00, +TSGR FG,SKC,-99.99,VWS V12.07,2013-01-04 06:25:00,
2013-01-04 00:30:00,14.6,11.2,30.12,WNW,292,2.0,8.0,86,0.00, +TSGR FG,SKC,-99.99,VWS V12.07,2013-01-04 06:30:00,
2013-01-04 00:35:00,14.4,11.0,30.12,WSW,238,8.0,8.0,86,0.00, +TSGR FG,SKC,-99.99,VWS V12.07,2013-01-04 06:35:00,
2013-01-04 00:40:00,14.4,11.0,30.12,South,187,4.0,8.0,86,0.00, +TSGR FG,SKC,-99.99,VWS V12.07,2013-01-04 06:40:00,
2013-01-04 00:45:00,14.3,10.9,30.12,WSW,238,4.0,9.0,86,0.00, +TSGR FG,SKC,-99.99,VWS V12.07,2013-01-04 06:45:00,
2013-01-04 00:50:00,14.3,10.6,30.12,West,264,5.0,9.0,85,0.00, +TSGR FG,SKC,-99.99,VWS V12.07,2013-01-04 06:50:00,
2013-01-04 00:55:00,14.3,10.6,30.12,WNW,286,1.0,9.0,85,0.00, +TSGR FG,SKC,-99.99,VWS V12.07,2013-01-04 06:55:00,
2013-01-04 01:00:00,14.1,10.4,30.12,WNW,286,1.0,9.0,85,0.00, +TSGR FG,SKC,-99.99,VWS V12.07,2013-01-04 07:00:00,
2013-01-04 01:05:00,14.0,10.1,30.12,WSW,237,4.0,6.0,84,0.00, +TSGR FG,SKC,-99.99,VWS V12.07,2013-01-04 07:05:00,
2013-01-04 01:10:00,13.9,10.0,30.12,SW,234,1.0,7.0,84,0.00, +TSGR FG,SKC,-99.99,VWS V12.07,2013-01-04 07:10:00,
2013-01-04 01:15:00,13.8,9.9,30.12,West,265,0.0,5.0,84,0.00, +TSGR FG,SKC,-99.99,VWS V12.07,2013-01-04 07:15:00,
2013-01-04 01:20:00,13.7,9.5,30.12,WSW,250,1.0,7.0,83,0.00, +TSGR FG,SKC,-99.99,VWS V12.07,2013-01-04 07:20:00,
2013-01-04 01:25:00,13.6,9.4,30.12,WNW,284,4.0,8.0,83,0.00, +TSGR FG,SKC,-99.99,VWS V12.07,2013-01-04 07:25:00,
2013-01-04 01:30:00,13.5,9.0,30.12,WSW,242,1.0,8.0,82,0.00, +TSGR FG,SKC,-99.99,VWS V12.07,2013-01-04 07:30:00,
2013-01-04 01:35:00,13.5,9.0,30.11,West,266,0.0,8.0,82,0.00, +TSGR FG,SKC,-99.99,VWS V12.07,2013-01-04 07:35:00,
2013-01-04 01:40:00,13.4,8.9,30.11,WSW,242,2.0,9.0,82,0.00, +TSGR FG,SKC,-99.99,VWS V12.07,2013-01-04 07:40:00,
2013-01-04 01:45:00,13.4,8.9,30.11,NNW,341,5.0,7.0,82,0.00, +TSGR FG,SKC,-99.99,VWS V12.07,2013-01-04 07:45:00,
2013-01-04 01:50:00,13.4,8.9,30.11,WSW,244,3.0,7.0,82,0.00, +TSGR FG,SKC,-99.99,VWS V12.07,2013-01-04 07:50:00,
2013-01-04 01:55:00,13.4,8.9,30.11,West,259,2.0,6.0,82,0.00, +TSGR FG,SKC,-99.99,VWS V12.07,2013-01-04 07:55:00,
2013-01-04 02:00:00,13.4,8.9,30.11,West,259,4.0,9.0,82,0.00, +TSGR FG,SKC,-99.99,VWS V12.07,2013-01-04 08:00:00,
2013-01-04 02:05:00,13.3,8.8,30.11,WSW,257,2.0,7.0,82,0.00, +TSGR FG,SKC,-99.99,VWS V12.07,2013-01-04 08:05:00,
2013-01-04 02:10:00,13.2,8.8,30.11,West,277,1.0,8.0,82,0.00, +TSGR FG,SKC,-99.99,VWS V12.07,2013-01-04 08:10:00,
2013-01-04 02:15:00,13.1,8.6,30.11,WNW,289,7.0,8.0,82,0.00, +TSGR FG,SKC,-99.99,VWS V12.07,2013-01-04 08:15:00,
2013-01-04 02:20:00,13.0,8.6,30.11,WSW,242,1.0,8.0,82,0.00, +TSGR FG,SKC,-99.99,VWS V12.07,2013-01-04 08:20:00,
2013-01-04 02:25:00,12.9,8.7,30.11,SW,233,2.0,6.0,83,0.00, +TSGR FG,SKC,-99.99,VWS V12.07,2013-01-04 08:25:00,
2013-01-04 02:30:00,12.8,8.6,30.11,West,263,3.0,6.0,83,0.00, +TSGR FG,SKC,-99.99,VWS V12.07,2013-01-04 08:30:00,
2013-01-04 02:35:00,12.7,8.5,30.11,WNW,282,1.0,6.0,83,0.00, +TSGR FG,SKC,-99.99,VWS V12.07,2013-01-04 08:35:00,
2013-01-04 02:40:00,12.7,8.5,30.10,WSW,253,4.0,6.0,83,0.00, +TSGR FG,SKC,-99.99,VWS V12.07,2013-01-04 08:40:00,
2013-01-04 02:45:00,12.7,8.5,30.10,West,265,2.0,6.0,83,0.00, +TSGR FG,SKC,-99.99,VWS V12.07,2013-01-04 08:45:00,
2013-01-04 02:50:00,12.7,8.8,30.10,West,259,5.0,8.0,84,0.00, +TSGR FG,SKC,-99.99,VWS V12.07,2013-01-04 08:50:00,
2013-01-04 02:55:00,12.7,8.8,30.10,West,269,2.0,7.0,84,0.00, +TSGR FG,SKC,-99.99,VWS V12.07,2013-01-04 08:55:00,
2013-01-04 03:00:00,12.7,8.8,30.10,WSW,253,6.0,12.0,84,0.00, +TSGR FG,SKC,-99.99,VWS V12.07,2013-01-04 09:00:00,
2013-01-04 03:05:00,12.8,8.9,30.10,SSW,205,1.0,10.0,84,0.00, +TSGR FG,SKC,-99.99,VWS V12.07,2013-01-04 09:05:00,
2013-01-04 03:10:00,12.8,8.9,30.10,West,259,2.0,10.0,84,0.00, +TSGR FG,SKC,-99.99,VWS V12.07,2013-01-04 09:10:00,
2013-01-04 03:15:00,12.8,8.9,30.09,West,273,1.0,9.0,84,0.00, +TSGR FG,SKC,-99.99,VWS V12.07,2013-01-04 09:15:00,
2013-01-04 03:20:00,12.8,8.9,30.09,WSW,240,4.0,9.0,84,0.00, +TSGR FG,SKC,-99.99,VWS V12.07,2013-01-04 09:20:00,
2013-01-04 03:25:00,12.8,8.9,30.09,WSW,237,4.0,8.0,84,0.00, +TSGR FG,SKC,-99.99,VWS V12.07,2013-01-04 09:25:00,
2013-01-04 03:30:00,12.9,9.0,30.09,WSW,257,1.0,8.0,84,0.00, +TSGR FG,SKC,-99.99,VWS V12.07,2013-01-04 09:30:00,
2013-01-04 03:35:00,12.9,9.2,30.09,WNW,290,1.0,7.0,85,0.00, +TSGR FG,SKC,-99.99,VWS V12.07,2013-01-04 09:35:00,
2013-01-04 03:40:00,12.9,9.2,30.08,WSW,237,3.0,8.0,85,0.00, +TSGR FG,SKC,-99.99,VWS V12.07,2013-01-04 09:40:00,
2013-01-04 03:45:00,12.9,9.2,30.08,WSW,251,2.0,7.0,85,0.00, +TSGR FG,SKC,-99.99,VWS V12.07,2013-01-04 09:45:00,
2013-01-04 03:50:00,12.9,9.2,30.08,NW,325,6.0,15.0,85,0.00, +TSGR FG,SKC,-99.99,VWS V12.07,2013-01-04 09:50:00,
2013-01-04 03:55:00,13.0,9.4,30.07,South,174,2.0,12.0,85,0.00, +TSGR FG,SKC,-99.99,VWS V12.07,2013-01-04 09:55:00,
2013-01-04 04:00:00,13.0,9.4,30.07,North,360,2.0,12.0,85,0.00, +TSGR FG,SKC,-99.99,VWS V12.07,2013-01-04 10:00:00,
2013-01-04 04:10:00,13.1,9.4,30.07,SSW,208,2.0,12.0,85,0.00, +TSGR FG,SKC,-99.99,VWS V12.07,2013-01-04 10:10:00,
2013-01-04 04:15:00,13.2,9.8,30.07,WSW,250,3.0,10.0,86,0.00, +TSGR FG,SKC,-99.99,VWS V12.07,2013-01-04 10:15:00,
2013-01-04 04:20:00,13.2,9.8,30.07,West,269,4.0,11.0,86,0.00, +TSGR FG,SKC,-99.99,VWS V12.07,2013-01-04 10:20:00,
2013-01-04 04:30:00,13.4,10.0,30.07,West,279,4.0,11.0,86,0.00, +TSGR FG,SKC,-99.99,VWS V12.07,2013-01-04 10:30:00,
2013-01-04 04:35:00,13.4,10.0,30.07,SSW,200,4.0,6.0,86,0.00, +TSGR FG,SKC,-99.99,VWS V12.07,2013-01-04 10:35:00,
2013-01-04 04:40:00,13.5,10.1,30.07,West,263,2.0,7.0,86,0.00, +TSGR FG,SKC,-99.99,VWS V12.07,2013-01-04 10:40:00,
2013-01-04 04:45:00,13.6,10.2,30.06,South,172,2.0,9.0,86,0.00, +TSGR FG,SKC,-99.99,VWS V12.07,2013-01-04 10:45:00,
2013-01-04 04:50:00,13.8,10.4,30.06,West,272,10.0,10.0,86,0.00, +TSGR FG,SKC,-99.99,VWS V12.07,2013-01-04 10:50:00,
2013-01-04 04:55:00,13.9,10.5,30.06,South,183,3.0,10.0,86,0.00, +TSGR FG,SKC,-99.99,VWS V12.07,2013-01-04 10:55:00,
2013-01-04 05:05:00,14.1,10.7,30.06,West,275,4.0,11.0,86,0.00, +TSGR FG,SKC,-99.99,VWS V12.07,2013-01-04 11:05:00,
2013-01-04 05:10:00,14.1,10.7,30.06,North,355,1.0,11.0,86,0.00, +TSGR FG,SKC,-99.99,VWS V12.07,2013-01-04 11:10:00,
2013-01-04 05:15:00,14.1,10.7,30.06,NNW,328,5.0,8.0,86,0.00, +TSGR FG,SKC,-99.99,VWS V12.07,2013-01-04 11:15:00,
2013-01-04 05:20:00,14.1,10.9,30.06,WSW,248,1.0,11.0,87,0.00, +TSGR FG,SKC,-99.99,VWS V12.07,2013-01-04 11:20:00,
2013-01-04 05:25:00,14.3,11.1,30.05,South,175,7.0,10.0,87,0.00, +TSGR FG,SKC,-99.99,VWS V12.07,2013-01-04 11:25:00,
2013-01-04 05:35:00,14.6,11.4,30.05,SSE,160,0.0,8.0,87,0.00, +TSGR FG,SKC,-99.99,VWS V12.07,2013-01-04 11:35:00,
2013-01-04 05:40:00,14.7,11.5,30.05,West,273,4.0,8.0,87,0.00, +TSGR FG,SKC,-99.99,VWS V12.07,2013-01-04 11:40:00,
2013-01-04 05:45:00,14.8,11.6,30.05,NNW,333,3.0,12.0,87,0.00, +TSGR FG,SKC,-99.99,VWS V12.07,2013-01-04 11:45:00,
2013-01-04 05:50:00,15.1,11.9,30.05,NNW,332,3.0,12.0,87,0.00, +TSGR FG,SKC,-99.99,VWS V12.07,2013-01-04 11:50:00,
2013-01-04 05:55:00,15.2,12.0,30.06,West,266,2.0,7.0,87,0.00, +TSGR FG,SKC,-99.99,VWS V12.07,2013-01-04 11:55:00,
2013-01-04 06:00:00,15.4,12.2,30.06,West,264,3.0,10.0,87,0.00, +TSGR FG,SKC,-99.99,VWS V12.07,2013-01-04 12:00:00,
2013-01-04 06:05:00,15.5,12.3,30.06,West,260,3.0,8.0,87,0.00, +TSGR FG,SKC,-99.99,VWS V12.07,2013-01-04 12:05:00,
2013-01-04 06:10:00,15.6,12.4,30.06,WSW,237,1.0,11.0,87,0.00, +TSGR FG,SKC,-99.99,VWS V12.07,2013-01-04 12:10:00,
2013-01-04 06:15:00,15.7,12.5,30.05,WSW,254,2.0,7.0,87,0.00, +TSGR FG,SKC,-99.99,VWS V12.07,2013-01-04 12:15:00,
2013-01-04 06:20:00,15.8,12.6,30.05,SW,229,4.0,8.0,87,0.00, +TSGR FG,SKC,-99.99,VWS V12.07,2013-01-04 12:20:00,
2013-01-04 06:25:00,15.9,12.7,30.06,WSW,245,3.0,11.0,87,0.00, +TSGR FG,SKC,-99.99,VWS V12.07,2013-01-04 12:25:00,
2013-01-04 06:30:00,15.9,12.7,30.06,West,273,1.0,11.0,87,0.00, +TSGR FG,SKC,-99.99,VWS V12.07,2013-01-04 12:30:00,
2013-01-04 06:35:00,16.0,12.8,30.06,South,184,3.0,9.0,87,0.00, +TSGR FG,SKC,-99.99,VWS V12.07,2013-01-04 12:35:00,
2013-01-04 06:40:00,16.1,12.9,30.05,West,269,3.0,10.0,87,0.00, +TSGR FG,SKC,-99.99,VWS V12.07,2013-01-04 12:40:00,
2013-01-04 06:45:00,16.1,12.9,30.06,NNW,331,1.0,7.0,87,0.00, +TSGR FG,SKC,-99.99,VWS V12.07,2013-01-04 12:45:00,
2013-01-04 06:50:00,16.2,13.0,30.06,WNW,298,5.0,11.0,87,0.00, +TSGR FG,SKC,-99.99,VWS V12.07,2013-01-04 12:50:00,
2013-01-04 06:55:00,16.2,13.0,30.06,WSW,242,5.0,9.0,87,0.00, +TSGR FG,SKC,-99.99,VWS V12.07,2013-01-04 12:55:00,
2013-01-04 07:00:00,16.1,12.9,30.06,WSW,256,3.0,9.0,87,0.00, +TSGR FG,SKC,-99.99,VWS V12.07,2013-01-04 13:00:00,
2013-01-04 07:05:00,16.1,12.9,30.07,West,272,8.0,8.0,87,0.00, +TSGR FG,SKC,-99.99,VWS V12.07,2013-01-04 13:05:00,
2013-01-04 07:10:00,16.1,12.7,30.07,NW,306,11.0,13.0,86,0.00, +TSGR FG,SKC,-99.99,VWS V12.07,2013-01-04 13:10:00,
2013-01-04 07:15:00,16.1,12.9,30.07,NNW,337,5.0,10.0,87,0.00, +TSGR FG,SKC,-99.99,VWS V12.07,2013-01-04 13:15:00,
2013-01-04 07:20:00,16.1,12.7,30.08,SW,219,5.0,14.0,86,0.00, +TSGR FG,SKC,-99.99,VWS V12.07,2013-01-04 13:20:00,
2013-01-04 07:25:00,16.0,12.6,30.08,West,261,4.0,8.0,86,0.00, +TSGR FG,SKC,-99.99,VWS V12.07,2013-01-04 13:25:00,
2013-01-04 07:30:00,15.9,12.5,30.07,West,267,2.0,11.0,86,0.00, +TSGR FG,SKC,-99.99,VWS V12.07,2013-01-04 13:30:00,
2013-01-04 07:35:00,15.9,12.5,30.08,WSW,258,5.0,12.0,86,0.00, +TSGR FG,SKC,-99.99,VWS V12.07,2013-01-04 13:35:00,
2013-01-04 07:40:00,16.0,12.8,30.08,WSW,257,2.0,12.0,87,0.00, +TSGR FG,SKC,-99.99,VWS V12.07,2013-01-04 13:40:00,
2013-01-04 07:45:00,16.1,12.7,30.08,WNW,284,9.0,9.0,86,0.00, +TSGR FG,SKC,-99.99,VWS V12.07,2013-01-04 13:45:00,
2013-01-04 07:50:00,16.2,13.0,30.08,WSW,258,2.0,9.0,87,0.00, +TSGR FG,SKC,-99.99,VWS V12.07,2013-01-04 13:50:00,
2013-01-04 07:55:00,16.2,13.0,30.08,WSW,244,5.0,9.0,87,0.00, +TSGR FG,SKC,-99.99,VWS V12.07,2013-01-04 13:55:00,
2013-01-04 08:00:00,16.3,12.9,30.08,WSW,250,4.0,14.0,86,0.00, +TSGR FG,SKC,-99.99,VWS V12.07,2013-01-04 14:00:00,
2013-01-04 08:05:00,16.5,13.1,30.07,SW,236,6.0,9.0,86,0.00, +TSGR FG,SKC,-99.99,VWS V12.07,2013-01-04 14:05:00,
2013-01-04 08:10:00,16.7,13.2,30.07,SW,215,6.0,12.0,86,0.00, +TSGR FG,SKC,-99.99,VWS V12.07,2013-01-04 14:10:00,
2013-01-04 08:15:00,16.8,13.4,30.07,WNW,287,3.0,12.0,86,0.00, +TSGR FG,SKC,-99.99,VWS V12.07,2013-01-04 14:15:00,
2013-01-04 08:20:00,17.0,13.5,30.06,West,268,1.0,12.0,86,0.00, +TSGR FG,SKC,-99.99,VWS V12.07,2013-01-04 14:20:00,
2013-01-04 08:25:00,17.2,13.5,30.07,West,268,4.0,9.0,85,0.00, +TSGR FG,SKC,-99.99,VWS V12.07,2013-01-04 14:25:00,
2013-01-04 08:30:00,17.5,13.8,30.07,West,260,3.0,10.0,85,0.00, +TSGR FG,SKC,-99.99,VWS V12.07,2013-01-04 14:30:00,
2013-01-04 08:35:00,17.9,14.2,30.06,West,274,4.0,7.0,85,0.00, +TSGR FG,SKC,-99.99,VWS V12.07,2013-01-04 14:35:00,
2013-01-04 08:40:00,18.0,16.1,30.06,West,276,0.0,10.0,92,0.00, +TSGR FG,SKC,-99.99,VWS V12.07,2013-01-04 14:40:00,
2013-01-04 08:45:00,18.3,14.3,30.06,South,172,7.0,9.0,84,0.00, +TSGR FG,SKC,-99.99,VWS V12.07,2013-01-04 14:45:00,
2013-01-04 08:50:00,18.5,14.2,30.06,South,190,8.0,10.0,83,0.00, +TSGR FG,SKC,-99.99,VWS V12.07,2013-01-04 14:50:00,
2013-01-04 08:55:00,18.8,14.5,30.06,WNW,301,8.0,9.0,83,0.00, +TSGR FG,SKC,-99.99,VWS V12.07,2013-01-04 14:55:00,
2013-01-04 09:00:00,19.0,14.7,30.06,West,267,3.0,13.0,83,0.00, +TSGR FG,SKC,-99.99,VWS V12.07,2013-01-04 15:00:00,
2013-01-04 09:05:00,19.3,14.7,30.06,NNW,347,4.0,13.0,82,0.00, +TSGR FG,SKC,-99.99,VWS V12.07,2013-01-04 15:05:00,
2013-01-04 09:10:00,19.6,15.0,30.06,WSW,237,13.0,13.0,82,0.00, +TSGR FG,SKC,-99.99,VWS V12.07,2013-01-04 15:10:00,
2013-01-04 09:15:00,19.8,15.2,30.06,West,263,3.0,9.0,82,0.00, +TSGR FG,SKC,-99.99,VWS V12.07,2013-01-04 15:15:00,
2013-01-04 09:20:00,20.1,15.2,30.06,WSW,251,4.0,16.0,81,0.00, +TSGR FG,SKC,-99.99,VWS V12.07,2013-01-04 15:20:00,
2013-01-04 09:25:00,20.4,15.5,30.06,West,271,2.0,7.0,81,0.00, +TSGR FG,SKC,-99.99,VWS V12.07,2013-01-04 15:25:00,
2013-01-04 09:30:00,20.6,15.4,30.07,WSW,249,3.0,9.0,80,0.00, +TSGR FG,SKC,-99.99,VWS V12.07,2013-01-04 15:30:00,
2013-01-04 09:35:00,20.9,15.4,30.07,SSW,200,6.0,10.0,79,0.00, +TSGR FG,SKC,-99.99,VWS V12.07,2013-01-04 15:35:00,
2013-01-04 09:40:00,21.1,15.6,30.06,SW,215,7.0,10.0,79,0.00, +TSGR FG,SKC,-99.99,VWS V12.07,2013-01-04 15:40:00,
2013-01-04 09:45:00,21.3,15.8,30.06,SW,223,4.0,8.0,79,0.00, +TSGR FG,SKC,-99.99,VWS V12.07,2013-01-04 15:45:00,
2013-01-04 09:50:00,21.6,15.8,30.07,SW,234,1.0,8.0,78,0.00, +TSGR FG,SKC,-99.99,VWS V12.07,2013-01-04 15:50:00,
2013-01-04 09:55:00,22.0,16.2,30.06,SW,225,6.0,7.0,78,0.00, +TSGR FG,SKC,-99.99,VWS V12.07,2013-01-04 15:55:00,
2013-01-04 10:00:00,22.3,16.2,30.07,WSW,257,3.0,8.0,77,0.00, +TSGR FG,SKC,-99.99,VWS V12.07,2013-01-04 16:00:00,
2013-01-04 10:05:00,22.6,16.5,30.07,West,281,7.0,11.0,77,0.00, +TSGR FG,SKC,-99.99,VWS V12.07,2013-01-04 16:05:00,
2013-01-04 10:10:00,22.9,16.8,30.07,WNW,296,7.0,11.0,77,0.00, +TSGR FG,SKC,-99.99,VWS V12.07,2013-01-04 16:10:00,
2013-01-04 10:15:00,23.3,17.2,30.07,WSW,239,5.0,13.0,77,0.00, +TSGR FG,SKC,-99.99,VWS V12.07,2013-01-04 16:15:00,
2013-01-04 10:20:00,23.7,17.3,30.07,West,270,4.0,13.0,76,0.00, +TSGR FG,SKC,-99.99,VWS V12.07,2013-01-04 16:20:00,
2013-01-04 10:25:00,24.0,17.2,30.07,WSW,258,4.0,9.0,75,0.00, +TSGR FG,SKC,-99.99,VWS V12.07,2013-01-04 16:25:00,
2013-01-04 10:30:00,24.3,17.2,30.06,West,270,4.0,9.0,74,0.00, +TSGR FG,SKC,-99.99,VWS V12.07,2013-01-04 16:30:00,
2013-01-04 10:35:00,24.5,17.4,30.07,WSW,244,3.0,8.0,74,0.00, +TSGR FG,SKC,-99.99,VWS V12.07,2013-01-04 16:35:00,
2013-01-04 10:40:00,24.9,17.8,30.07,West,280,4.0,10.0,74,0.00, +TSGR FG,SKC,-99.99,VWS V12.07,2013-01-04 16:40:00,
2013-01-04 10:45:00,25.2,17.8,30.06,South,186,4.0,9.0,73,0.00, +TSGR FG,SKC,-99.99,VWS V12.07,2013-01-04 16:45:00,
2013-01-04 10:50:00,25.6,18.2,30.07,WSW,254,5.0,9.0,73,0.00, +TSGR FG,SKC,-99.99,VWS V12.07,2013-01-04 16:50:00,
2013-01-04 10:55:00,26.1,18.3,30.07,West,271,3.0,6.0,72,0.00, +TSGR FG,SKC,-99.99,VWS V12.07,2013-01-04 16:55:00,
2013-01-04 11:00:00,26.5,18.7,30.06,West,271,1.0,9.0,72,0.00, +TSGR FG,SKC,-99.99,VWS V12.07,2013-01-04 17:00:00,
2013-01-04 11:05:00,26.7,18.2,30.06,WSW,251,4.0,10.0,70,0.00, +TSGR FG,SKC,-99.99,VWS V12.07,2013-01-04 17:05:00,
2013-01-04 11:10:00,26.8,18.3,30.06,WSW,257,4.0,10.0,70,0.00, +TSGR FG,SKC,-99.99,VWS V12.07,2013-01-04 17:10:00,
2013-01-04 11:15:00,26.9,18.4,30.06,WNW,290,5.0,13.0,70,0.00, +TSGR FG,SKC,-99.99,VWS V12.07,2013-01-04 17:15:00,
2013-01-04 11:20:00,27.2,18.4,30.05,SW,218,3.0,13.0,69,0.00, +TSGR FG,SKC,-99.99,VWS V12.07,2013-01-04 17:20:00,
2013-01-04 11:25:00,27.7,19.2,30.05,WNW,294,2.0,6.0,70,0.00, +TSGR FG,SKC,-99.99,VWS V12.07,2013-01-04 17:25:00,
2013-01-04 11:30:00,27.9,19.1,30.05,WSW,252,2.0,9.0,69,0.00, +TSGR FG,SKC,-99.99,VWS V12.07,2013-01-04 17:30:00,
2013-01-04 11:35:00,28.0,18.8,30.05,West,279,2.0,10.0,68,0.00, +TSGR FG,SKC,-99.99,VWS V12.07,2013-01-04 17:35:00,
2013-01-04 11:40:00,28.1,18.9,30.05,WSW,252,2.0,12.0,68,0.00, +TSGR FG,SKC,-99.99,VWS V12.07,2013-01-04 17:40:00,
2013-01-04 11:45:00,28.3,19.1,30.04,SW,227,2.0,11.0,68,0.00, +TSGR FG,SKC,-99.99,VWS V12.07,2013-01-04 17:45:00,
2013-01-04 11:50:00,28.7,19.5,30.05,WSW,257,8.0,11.0,68,0.00, +TSGR FG,SKC,-99.99,VWS V12.07,2013-01-04 17:50:00,
2013-01-04 11:55:00,28.8,19.2,30.04,West,271,0.0,5.0,67,0.00, +TSGR FG,SKC,-99.99,VWS V12.07,2013-01-04 17:55:00,
2013-01-04 12:00:00,29.1,19.5,30.04,WNW,283,4.0,11.0,67,0.00, +TSGR FG,SKC,-99.99,VWS V12.07,2013-01-04 18:00:00,
2013-01-04 12:05:00,29.2,19.3,30.04,WSW,242,3.0,8.0,66,0.00, +TSGR FG,SKC,-99.99,VWS V12.07,2013-01-04 18:05:00,
2013-01-04 12:10:00,29.4,19.5,30.04,WSW,258,1.0,9.0,66,0.00, +TSGR FG,SKC,-99.99,VWS V12.07,2013-01-04 18:10:00,
2013-01-04 12:15:00,29.6,19.6,30.04,SW,229,2.0,8.0,66,0.00, +TSGR FG,SKC,-99.99,VWS V12.07,2013-01-04 18:15:00,
2013-01-04 12:20:00,29.7,19.8,30.04,NNW,330,1.0,8.0,66,0.00, +TSGR FG,SKC,-99.99,VWS V12.07,2013-01-04 18:20:00,
2013-01-04 12:25:00,29.9,19.6,30.04,West,281,9.0,9.0,65,0.00, +TSGR FG,SKC,-99.99,VWS V12.07,2013-01-04 18:25:00,
2013-01-04 12:30:00,29.8,19.8,30.03,SSE,148,2.0,10.0,66,0.00, +TSGR FG,SKC,-99.99,VWS V12.07,2013-01-04 18:30:00,
2013-01-04 12:35:00,29.8,19.5,30.03,West,267,3.0,11.0,65,0.00, +TSGR FG,SKC,-99.99,VWS V12.07,2013-01-04 18:35:00,
2013-01-04 12:40:00,29.8,19.8,30.03,SW,233,4.0,11.0,66,0.00, +TSGR FG,SKC,-99.99,VWS V12.07,2013-01-04 18:40:00,
2013-01-04 12:45:00,30.3,20.3,30.03,West,269,6.0,7.0,66,0.00, +TSGR FG,SKC,-99.99,VWS V12.07,2013-01-04 18:45:00,
2013-01-04 12:50:00,30.3,20.0,30.03,West,272,5.0,8.0,65,0.00, +TSGR FG,SKC,-99.99,VWS V12.07,2013-01-04 18:50:00,
2013-01-04 12:55:00,30.3,20.0,30.03,WSW,244,4.0,8.0,65,0.00, +TSGR FG,SKC,-99.99,VWS V12.07,2013-01-04 18:55:00,
2013-01-04 13:00:00,30.5,19.8,30.03,WNW,297,2.0,8.0,64,0.00, +TSGR FG,SKC,-99.99,VWS V12.07,2013-01-04 19:00:00,
2013-01-04 13:05:00,30.4,20.1,30.03,WSW,248,3.0,12.0,65,0.00, +TSGR FG,SKC,-99.99,VWS V12.07,2013-01-04 19:05:00,
2013-01-04 13:10:00,30.2,19.5,30.03,West,274,3.0,12.0,64,0.00, +TSGR FG,SKC,-99.99,VWS V12.07,2013-01-04 19:10:00,
2013-01-04 13:15:00,30.4,20.1,30.03,WSW,246,3.0,8.0,65,0.00, +TSGR FG,SKC,-99.99,VWS V12.07,2013-01-04 19:15:00,
2013-01-04 13:20:00,30.6,20.2,30.03,WNW,290,6.0,8.0,65,0.00, +TSGR FG,SKC,-99.99,VWS V12.07,2013-01-04 19:20:00,
2013-01-04 13:25:00,30.4,19.7,30.03,WSW,251,5.0,11.0,64,0.00, +TSGR FG,SKC,-99.99,VWS V12.07,2013-01-04 19:25:00,
2013-01-04 13:30:00,30.4,20.4,30.02,WNW,300,2.0,11.0,66,0.00, +TSGR FG,SKC,-99.99,VWS V12.07,2013-01-04 19:30:00,
2013-01-04 13:35:00,30.5,20.1,30.02,SW,215,4.0,10.0,65,0.01, +TSGR FG,SKC,-99.99,VWS V12.07,2013-01-04 19:35:00,
2013-01-04 13:40:00,30.6,20.2,30.03,South,185,1.0,10.0,65,0.01, +TSGR FG,SKC,-99.99,VWS V12.07,2013-01-04 19:40:00,
2013-01-04 13:45:00,30.7,20.7,30.03,NNW,328,3.0,5.0,66,0.01, +TSGR FG,SKC,-99.99,VWS V12.07,2013-01-04 19:45:00,
2013-01-04 13:50:00,30.7,20.3,30.03,West,264,2.0,8.0,65,0.01, +TSGR FG,SKC,-99.99,VWS V12.07,2013-01-04 19:50:00,
2013-01-04 13:55:00,31.0,21.0,30.03,West,281,8.0,8.0,66,0.01, +TSGR FG,SKC,-99.99,VWS V12.07,2013-01-04 19:55:00,
2013-01-04 14:00:00,31.0,20.3,30.03,SSW,209,8.0,8.0,64,0.01, +TSGR FG,SKC,-99.99,VWS V12.07,2013-01-04 20:00:00,
2013-01-04 14:05:00,31.0,20.6,30.03,WSW,247,0.0,11.0,65,0.01, +TSGR FG,SKC,-99.99,VWS V12.07,2013-01-04 20:05:00,
2013-01-04 14:10:00,31.0,21.0,30.03,WSW,240,1.0,11.0,66,0.01, +TSGR FG,SKC,-99.99,VWS V12.07,2013-01-04 20:10:00,
2013-01-04 14:15:00,31.2,20.8,30.03,SW,219,2.0,11.0,65,0.01, +TSGR FG,SKC,-99.99,VWS V12.07,2013-01-04 20:15:00,
2013-01-04 14:20:00,31.2,20.5,30.04,WSW,256,4.0,11.0,64,0.01, +TSGR FG,SKC,-99.99,VWS V12.07,2013-01-04 20:20:00,
2013-01-04 14:25:00,31.2,20.8,30.04,West,278,7.0,10.0,65,0.01, +TSGR FG,SKC,-99.99,VWS V12.07,2013-01-04 20:25:00,
2013-01-04 14:30:00,31.4,21.0,30.04,West,263,1.0,11.0,65,0.01, +TSGR FG,SKC,-99.99,VWS V12.07,2013-01-04 20:30:00,
2013-01-04 14:35:00,31.5,20.7,30.05,West,271,5.0,8.0,64,0.00, +TSGR FG,SKC,-99.99,VWS V12.07,2013-01-04 20:35:00,
2013-01-04 14:40:00,31.4,20.6,30.05,WSW,239,2.0,8.0,64,0.00, +TSGR FG,SKC,-99.99,VWS V12.07,2013-01-04 20:40:00,
2013-01-04 14:45:00,31.3,20.9,30.05,SW,231,4.0,7.0,65,0.00, +TSGR FG,SKC,-99.99,VWS V12.07,2013-01-04 20:45:00,
2013-01-04 14:50:00,31.2,20.5,30.05,WNW,299,5.0,13.0,64,0.00, +TSGR FG,SKC,-99.99,VWS V12.07,2013-01-04 20:50:00,
2013-01-04 14:55:00,31.0,20.6,30.05,West,262,3.0,7.0,65,0.00, +TSGR FG,SKC,-99.99,VWS V12.07,2013-01-04 20:55:00,
2013-01-04 15:00:00,30.8,20.8,30.05,ENE,59,2.0,7.0,66,0.00, +TSGR FG,SKC,-99.99,VWS V12.07,2013-01-04 21:00:00,
2013-01-04 15:05:00,30.7,20.7,30.05,South,186,1.0,7.0,66,0.00, +TSGR FG,SKC,-99.99,VWS V12.07,2013-01-04 21:05:00,
2013-01-04 15:10:00,30.4,20.1,30.06,SW,232,4.0,8.0,65,0.00, +TSGR FG,SKC,-99.99,VWS V12.07,2013-01-04 21:10:00,
2013-01-04 15:15:00,30.1,20.1,30.06,West,277,2.0,8.0,66,0.00, +TSGR FG,SKC,-99.99,VWS V12.07,2013-01-04 21:15:00,
2013-01-04 15:20:00,29.8,20.2,30.06,WSW,240,1.0,8.0,67,0.00, +TSGR FG,SKC,-99.99,VWS V12.07,2013-01-04 21:20:00,
2013-01-04 15:25:00,29.6,20.4,30.06,SSW,203,4.0,7.0,68,0.00, +TSGR FG,SKC,-99.99,VWS V12.07,2013-01-04 21:25:00,
2013-01-04 15:30:00,29.5,20.3,30.06,NNE,26,1.0,7.0,68,0.00, +TSGR FG,SKC,-99.99,VWS V12.07,2013-01-04 21:30:00,
2013-01-04 15:35:00,29.3,20.4,30.06,WSW,244,5.0,6.0,69,0.00, +TSGR FG,SKC,-99.99,VWS V12.07,2013-01-04 21:35:00,
2013-01-04 15:40:00,29.2,20.3,30.07,West,266,6.0,9.0,69,0.00, +TSGR FG,SKC,-99.99,VWS V12.07,2013-01-04 21:40:00,
2013-01-04 15:45:00,29.1,20.2,30.07,West,263,4.0,8.0,69,0.00, +TSGR FG,SKC,-99.99,VWS V12.07,2013-01-04 21:45:00,
2013-01-04 15:50:00,29.0,20.1,30.07,SW,232,3.0,8.0,69,0.00, +TSGR FG,SKC,-99.99,VWS V12.07,2013-01-04 21:50:00,
2013-01-04 15:55:00,28.9,20.4,30.08,North,355,3.0,8.0,70,0.00, +TSGR FG,SKC,-99.99,VWS V12.07,2013-01-04 21:55:00,
2013-01-04 16:00:00,28.9,20.4,30.08,WSW,253,2.0,8.0,70,0.00, +TSGR FG,SKC,-99.99,VWS V12.07,2013-01-04 22:00:00,
2013-01-04 16:05:00,28.8,20.3,30.08,WNW,284,3.0,9.0,70,0.00, +TSGR FG,SKC,-99.99,VWS V12.07,2013-01-04 22:05:00,
2013-01-04 16:10:00,28.7,20.2,30.08,NW,304,1.0,9.0,70,0.00, +TSGR FG,SKC,-99.99,VWS V12.07,2013-01-04 22:10:00,
2013-01-04 16:15:00,28.5,20.3,30.08,SW,227,2.0,4.0,71,0.00, +TSGR FG,SKC,-99.99,VWS V12.07,2013-01-04 22:15:00,
2013-01-04 16:20:00,28.3,20.1,30.09,WNW,293,1.0,7.0,71,0.00, +TSGR FG,SKC,-99.99,VWS V12.07,2013-01-04 22:20:00,
2013-01-04 16:25:00,28.1,20.2,30.09,WSW,243,7.0,7.0,72,0.00, +TSGR FG,SKC,-99.99,VWS V12.07,2013-01-04 22:25:00,
2013-01-04 16:30:00,28.1,20.2,30.09,NW,304,1.0,7.0,72,0.00, +TSGR FG,SKC,-99.99,VWS V12.07,2013-01-04 22:30:00,
2013-01-04 16:35:00,28.0,20.2,30.09,South,178,4.0,5.0,72,0.00, +TSGR FG,SKC,-99.99,VWS V12.07,2013-01-04 22:35:00,
2013-01-04 16:40:00,27.9,20.4,30.09,West,259,3.0,5.0,73,0.00, +TSGR FG,SKC,-99.99,VWS V12.07,2013-01-04 22:40:00,
2013-01-04 16:45:00,27.8,20.3,30.09,NNW,330,3.0,7.0,73,0.00, +TSGR FG,SKC,-99.99,VWS V12.07,2013-01-04 22:45:00,
2013-01-04 16:50:00,27.7,20.2,30.09,WNW,293,2.0,8.0,73,0.00, +TSGR FG,SKC,-99.99,VWS V12.07,2013-01-04 22:50:00,
2013-01-04 16:55:00,27.6,20.1,30.10,West,260,2.0,7.0,73,0.00, +TSGR FG,SKC,-99.99,VWS V12.07,2013-01-04 22:55:00,
2013-01-04 17:00:00,27.4,20.2,30.10,WNW,295,0.0,7.0,74,0.00, +TSGR FG,SKC,-99.99,VWS V12.07,2013-01-04 23:00:00,
2013-01-04 17:05:00,27.3,20.1,30.10,WNW,293,1.0,3.0,74,0.00, +TSGR FG,SKC,-99.99,VWS V12.07,2013-01-04 23:05:00,
2013-01-04 17:10:00,27.2,20.0,30.10,WSW,249,2.0,5.0,74,0.00, +TSGR FG,SKC,-99.99,VWS V12.07,2013-01-04 23:10:00,
2013-01-04 17:15:00,27.0,20.1,30.10,West,261,4.0,5.0,75,0.00, +TSGR FG,SKC,-99.99,VWS V12.07,2013-01-04 23:15:00,
2013-01-04 17:20:00,26.9,20.0,30.11,WNW,302,1.0,5.0,75,0.00, +TSGR FG,SKC,-99.99,VWS V12.07,2013-01-04 23:20:00,
2013-01-04 17:25:00,26.8,20.3,30.11,WNW,292,4.0,5.0,76,0.00, +TSGR FG,SKC,-99.99,VWS V12.07,2013-01-04 23:25:00,
2013-01-04 17:30:00,26.8,20.3,30.11,West,267,2.0,5.0,76,0.00, +TSGR FG,SKC,-99.99,VWS V12.07,2013-01-04 23:30:00,
2013-01-04 17:35:00,26.8,20.3,30.11,WSW,237,3.0,8.0,76,0.00, +TSGR FG,SKC,-99.99,VWS V12.07,2013-01-04 23:35:00,
2013-01-04 17:40:00,26.8,20.3,30.11,WSW,246,0.0,8.0,76,0.00, +TSGR FG,SKC,-99.99,VWS V12.07,2013-01-04 23:40:00,
2013-01-04 17:50:00,26.7,20.5,30.11,SSW,206,2.0,6.0,77,0.00, +TSGR FG,SKC,-99.99,VWS V12.07,2013-01-04 23:50:00,
2013-01-04 17:55:00,26.7,20.5,30.11,West,261,2.0,6.0,77,0.00, +TSGR FG,SKC,-99.99,VWS V12.07,2013-01-04 23:55:00,
2013-01-04 18:00:00,26.7,20.5,30.11,West,262,3.0,6.0,77,0.00, +TSGR FG,SKC,-99.99,VWS V12.07,2013-01-05 00:00:00,
2013-01-04 18:05:00,26.6,20.4,30.12,WSW,252,0.0,8.0,77,0.00, +TSGR FG,SKC,-99.99,VWS V12.07,2013-01-05 00:05:00,
2013-01-04 18:15:00,26.6,20.4,30.12,West,265,4.0,6.0,77,0.00, +TSGR FG,SKC,-99.99,VWS V12.07,2013-01-05 00:15:00,
2013-01-04 18:20:00,26.5,20.3,30.12,West,279,1.0,7.0,77,0.00, +TSGR FG,SKC,-99.99,VWS V12.07,2013-01-05 00:20:00,
2013-01-04 18:30:00,26.5,20.3,30.12,WNW,286,2.0,11.0,77,0.00, +TSGR FG,SKC,-99.99,VWS V12.07,2013-01-05 00:30:00,
2013-01-04 18:35:00,26.5,20.3,30.12,West,261,0.0,8.0,77,0.00, +TSGR FG,SKC,-99.99,VWS V12.07,2013-01-05 00:35:00,
2013-01-04 18:40:00,26.4,20.2,30.13,SW,223,6.0,8.0,77,0.00, +TSGR FG,SKC,-99.99,VWS V12.07,2013-01-05 00:40:00,
2013-01-04 18:45:00,26.4,20.5,30.13,WSW,252,0.0,8.0,78,0.00, +TSGR FG,SKC,-99.99,VWS V12.07,2013-01-05 00:45:00,
2013-01-04 18:50:00,26.3,20.1,30.13,West,279,0.0,8.0,77,0.00, +TSGR FG,SKC,-99.99,VWS V12.07,2013-01-05 00:50:00,
2013-01-04 18:55:00,26.3,20.4,30.13,WNW,299,2.0,5.0,78,0.00, +TSGR FG,SKC,-99.99,VWS V12.07,2013-01-05 00:55:00,
2013-01-04 19:00:00,26.4,20.2,30.13,West,281,1.0,6.0,77,0.00, +TSGR FG,SKC,-99.99,VWS V12.07,2013-01-05 01:00:00,
2013-01-04 19:05:00,26.4,20.5,30.13,WNW,287,3.0,6.0,78,0.00, +TSGR FG,SKC,-99.99,VWS V12.07,2013-01-05 01:05:00,
2013-01-04 19:10:00,26.3,20.1,30.14,WSW,254,0.0,6.0,77,0.00, +TSGR FG,SKC,-99.99,VWS V12.07,2013-01-05 01:10:00,
2013-01-04 19:15:00,26.2,20.3,30.13,SSW,209,0.0,6.0,78,0.00, +TSGR FG,SKC,-99.99,VWS V12.07,2013-01-05 01:15:00,
2013-01-04 19:20:00,26.1,20.2,30.13,WSW,244,0.0,6.0,78,0.00, +TSGR FG,SKC,-99.99,VWS V12.07,2013-01-05 01:20:00,
2013-01-04 19:25:00,26.0,20.1,30.14,WSW,252,2.0,4.0,78,0.00, +TSGR FG,SKC,-99.99,VWS V12.07,2013-01-05 01:25:00,
2013-01-04 19:30:00,26.0,20.1,30.14,SW,236,1.0,5.0,78,0.00, +TSGR FG,SKC,-99.99,VWS V12.07,2013-01-05 01:30:00,
2013-01-04 19:35:00,26.0,20.1,30.14,West,266,4.0,4.0,78,0.00, +TSGR FG,SKC,-99.99,VWS V12.07,2013-01-05 01:35:00,
2013-01-04 19:40:00,26.0,20.1,30.14,NW,306,2.0,5.0,78,0.00, +TSGR FG,SKC,-99.99,VWS V12.07,2013-01-05 01:40:00,
2013-01-04 19:45:00,26.0,20.4,30.14,West,264,1.0,6.0,79,0.00, +TSGR FG,SKC,-99.99,VWS V12.07,2013-01-05 01:45:00,
2013-01-04 19:50:00,26.1,20.5,30.14,West,274,1.0,6.0,79,0.00, +TSGR FG,SKC,-99.99,VWS V12.07,2013-01-05 01:50:00,
2013-01-04 19:55:00,26.1,20.5,30.14,WNW,288,3.0,5.0,79,0.00, +TSGR FG,SKC,-99.99,VWS V12.07,2013-01-05 01:55:00,
2013-01-04 20:00:00,26.2,20.3,30.13,North,5,0.0,6.0,78,0.00, +TSGR FG,SKC,-99.99,VWS V12.07,2013-01-05 02:00:00,
2013-01-04 20:05:00,26.1,20.5,30.14,NW,325,2.0,6.0,79,0.00, +TSGR FG,SKC,-99.99,VWS V12.07,2013-01-05 02:05:00,
2013-01-04 20:10:00,26.0,20.1,30.14,WSW,245,2.0,6.0,78,0.00, +TSGR FG,SKC,-99.99,VWS V12.07,2013-01-05 02:10:00,
2013-01-04 20:15:00,25.9,20.3,30.14,WNW,282,1.0,4.0,79,0.00, +TSGR FG,SKC,-99.99,VWS V12.07,2013-01-05 02:15:00,
2013-01-04 20:20:00,25.8,20.2,30.14,SW,236,1.0,4.0,79,0.00, +TSGR FG,SKC,-99.99,VWS V12.07,2013-01-05 02:20:00,
2013-01-04 20:25:00,25.8,20.2,30.14,WSW,245,1.0,6.0,79,0.00, +TSGR FG,SKC,-99.99,VWS V12.07,2013-01-05 02:25:00,
2013-01-04 20:30:00,25.7,20.1,30.14,WSW,247,3.0,6.0,79,0.00, +TSGR FG,SKC,-99.99,VWS V12.07,2013-01-05 02:30:00,
2013-01-04 20:35:00,25.7,20.4,30.14,West,277,1.0,6.0,80,0.00, +TSGR FG,SKC,-99.99,VWS V12.07,2013-01-05 02:35:00,
2013-01-04 20:40:00,25.6,20.3,30.14,WSW,252,1.0,6.0,80,0.00, +TSGR FG,SKC,-99.99,VWS V12.07,2013-01-05 02:40:00,
2013-01-04 20:45:00,25.4,19.8,30.13,WSW,246,0.0,6.0,79,0.00, +TSGR FG,SKC,-99.99,VWS V12.07,2013-01-05 02:45:00,
2013-01-04 20:50:00,25.2,19.9,30.14,West,259,1.0,6.0,80,0.00, +TSGR FG,SKC,-99.99,VWS V12.07,2013-01-05 02:50:00,
2013-01-04 20:55:00,25.1,19.8,30.14,SSW,211,0.0,3.0,80,0.00, +TSGR FG,SKC,-99.99,VWS V12.07,2013-01-05 02:55:00,
2013-01-04 21:00:00,25.0,19.7,30.14,WSW,242,0.0,3.0,80,0.00, +TSGR FG,SKC,-99.99,VWS V12.07,2013-01-05 03:00:00,
2013-01-04 21:05:00,24.9,19.9,30.13,SW,215,0.0,4.0,81,0.00, +TSGR FG,SKC,-99.99,VWS V12.07,2013-01-05 03:05:00,
2013-01-04 21:10:00,24.9,19.9,30.14,SW,236,1.0,6.0,81,0.00, +TSGR FG,SKC,-99.99,VWS V12.07,2013-01-05 03:10:00,
2013-01-04 21:15:00,24.9,20.2,30.13,WSW,239,2.0,7.0,82,0.00, +TSGR FG,SKC,-99.99,VWS V12.07,2013-01-05 03:15:00,
2013-01-04 21:20:00,24.9,19.9,30.14,SSW,213,1.0,7.0,81,0.00, +TSGR FG,SKC,-99.99,VWS V12.07,2013-01-05 03:20:00,
2013-01-04 21:25:00,24.8,19.8,30.13,WSW,252,1.0,4.0,81,0.00, +TSGR FG,SKC,-99.99,VWS V12.07,2013-01-05 03:25:00,
2013-01-04 21:30:00,24.9,19.9,30.13,WSW,249,2.0,5.0,81,0.00, +TSGR FG,SKC,-99.99,VWS V12.07,2013-01-05 03:30:00,
2013-01-04 21:35:00,24.8,20.1,30.14,WSW,254,0.0,3.0,82,0.00, +TSGR FG,SKC,-99.99,VWS V12.07,2013-01-05 03:35:00,
2013-01-04 21:40:00,24.8,20.1,30.14,South,186,1.0,6.0,82,0.00, +TSGR FG,SKC,-99.99,VWS V12.07,2013-01-05 03:40:00,
2013-01-04 21:45:00,24.7,20.0,30.14,WSW,238,1.0,3.0,82,0.00, +TSGR FG,SKC,-99.99,VWS V12.07,2013-01-05 03:45:00,
2013-01-04 21:50:00,24.6,19.9,30.14,North,360,2.0,3.0,82,0.00, +TSGR FG,SKC,-99.99,VWS V12.07,2013-01-05 03:50:00,
2013-01-04 21:55:00,24.6,19.9,30.14,SW,224,0.0,4.0,82,0.00, +TSGR FG,SKC,-99.99,VWS V12.07,2013-01-05 03:55:00,
2013-01-04 22:00:00,24.5,19.8,30.14,WSW,257,0.0,4.0,82,0.00, +TSGR FG,SKC,-99.99,VWS V12.07,2013-01-05 04:00:00,
2013-01-04 22:05:00,24.4,19.7,30.14,West,268,0.0,4.0,82,0.00, +TSGR FG,SKC,-99.99,VWS V12.07,2013-01-05 04:05:00,
2013-01-04 22:10:00,24.4,20.0,30.14,SSW,202,1.0,4.0,83,0.00, +TSGR FG,SKC,-99.99,VWS V12.07,2013-01-05 04:10:00,
2013-01-04 22:15:00,24.3,19.9,30.14,WNW,303,0.0,2.0,83,0.00, +TSGR FG,SKC,-99.99,VWS V12.07,2013-01-05 04:15:00,
2013-01-04 22:20:00,24.2,19.8,30.14,WSW,245,0.0,4.0,83,0.00, +TSGR FG,SKC,-99.99,VWS V12.07,2013-01-05 04:20:00,
2013-01-04 22:25:00,24.1,19.7,30.14,WSW,247,0.0,2.0,83,0.00, +TSGR FG,SKC,-99.99,VWS V12.07,2013-01-05 04:25:00,
2013-01-04 22:30:00,24.0,19.6,30.14,WSW,247,0.0,2.0,83,0.00, +TSGR FG,SKC,-99.99,VWS V12.07,2013-01-05 04:30:00,
2013-01-04 22:35:00,23.8,19.4,30.14,WSW,244,1.0,3.0,83,0.00, +TSGR FG,SKC,-99.99,VWS V12.07,2013-01-05 04:35:00,
2013-01-04 22:40:00,23.7,19.6,30.15,SSW,213,1.0,3.0,84,0.00, +TSGR FG,SKC,-99.99,VWS V12.07,2013-01-05 04:40:00,
2013-01-04 22:45:00,23.6,19.5,30.15,SSW,213,0.0,4.0,84,0.00, +TSGR FG,SKC,-99.99,VWS V12.07,2013-01-05 04:45:00,
2013-01-04 22:50:00,23.5,19.4,30.15,SW,219,2.0,4.0,84,0.00, +TSGR FG,SKC,-99.99,VWS V12.07,2013-01-05 04:50:00,
2013-01-04 22:55:00,23.5,19.4,30.15,SW,224,0.0,3.0,84,0.00, +TSGR FG,SKC,-99.99,VWS V12.07,2013-01-05 04:55:00,
2013-01-04 23:00:00,23.5,19.7,30.15,WSW,239,0.0,5.0,85,0.00, +TSGR FG,SKC,-99.99,VWS V12.07,2013-01-05 05:00:00,
2013-01-04 23:05:00,23.6,19.8,30.15,SW,219,0.0,4.0,85,0.00, +TSGR FG,SKC,-99.99,VWS V12.07,2013-01-05 05:05:00,
2013-01-04 23:10:00,23.6,19.5,30.15,South,190,2.0,4.0,84,0.00, +TSGR FG,SKC,-99.99,VWS V12.07,2013-01-05 05:10:00,
2013-01-04 23:15:00,23.7,19.9,30.15,WSW,249,1.0,4.0,85,0.00, +TSGR FG,SKC,-99.99,VWS V12.07,2013-01-05 05:15:00,
2013-01-04 23:20:00,23.9,19.8,30.15,WNW,298,2.0,6.0,84,0.00, +TSGR FG,SKC,-99.99,VWS V12.07,2013-01-05 05:20:00,
2013-01-04 23:25:00,23.9,19.8,30.15,SW,219,0.0,4.0,84,0.00, +TSGR FG,SKC,-99.99,VWS V12.07,2013-01-05 05:25:00,
2013-01-04 23:30:00,24.0,19.9,30.15,WSW,243,0.0,4.0,84,0.00, +TSGR FG,SKC,-99.99,VWS V12.07,2013-01-05 05:30:00,
2013-01-04 23:35:00,23.9,19.8,30.15,West,267,0.0,3.0,84,0.00, +TSGR FG,SKC,-99.99,VWS V12.07,2013-01-05 05:35:00,
2013-01-04 23:45:00,23.7,19.6,30.15,NW,309,0.0,4.0,84,0.00, +TSGR FG,SKC,-99.99,VWS V12.07,2013-01-05 05:45:00,
2013-01-04 23:50:00,23.6,19.5,30.15,WNW,287,1.0,5.0,84,0.00, +TSGR FG,SKC,-99.99,VWS V12.07,2013-01-05 05:50:00,
2013-01-04 23:55:00,23.4,19.3,30.16,WNW,287,1.0,1.0,84,0.00, +TSGR FG,SKC,-99.99,VWS V12.07,2013-01-05 05:55:00,